createdAt,value
2018-09-05T00:00:55.942Z,19.89
2018-09-05T00:03:24.860Z,19.94
2018-09-05T00:05:53.754Z,19.88
2018-09-05T00:08:22.638Z,19.80
2018-09-05T00:10:51.539Z,19.79
2018-09-05T00:13:27.874Z,19.87
2018-09-05T00:16:09.183Z,19.85
2018-09-05T00:18:38.089Z,19.84
2018-09-05T00:21:06.982Z,19.79
2018-09-05T00:23:35.930Z,19.77
2018-09-05T00:26:05.107Z,19.79
2018-09-05T00:28:34.043Z,19.75
2018-09-05T00:31:03.057Z,19.71
2018-09-05T00:36:25.118Z,19.58
2018-09-05T00:39:10.486Z,19.52
2018-09-05T00:41:51.776Z,19.54
2018-09-05T00:44:20.716Z,19.54
2018-09-05T00:46:49.610Z,19.52
2018-09-05T00:49:31.965Z,19.52
2018-09-05T00:52:14.352Z,19.47
2018-09-05T00:54:48.189Z,19.41
2018-09-05T00:57:23.218Z,19.43
2018-09-05T00:59:55.782Z,19.42
2018-09-05T01:02:24.650Z,19.40
2018-09-05T01:04:54.585Z,19.36
2018-09-05T01:07:27.683Z,19.36
2018-09-05T01:09:56.566Z,19.27
2018-09-05T01:12:25.969Z,19.31
2018-09-05T01:14:55.384Z,19.32
2018-09-05T01:17:26.316Z,19.26
2018-09-05T01:20:13.741Z,19.20
2018-09-05T01:22:42.635Z,19.20
2018-09-05T01:25:11.529Z,19.14
2018-09-05T01:27:40.455Z,19.16
2018-09-05T01:30:28.677Z,19.14
2018-09-05T01:32:58.894Z,19.13
2018-09-05T01:35:27.979Z,19.11
2018-09-05T01:37:57.218Z,19.07
2018-09-05T01:40:26.256Z,19.05
2018-09-05T01:43:02.879Z,19.06
2018-09-05T01:45:31.799Z,19.02
2018-09-05T01:48:00.713Z,19.00
2018-09-05T01:50:49.473Z,19.01
2018-09-05T01:53:34.842Z,19.00
2018-09-05T01:56:04.930Z,18.99
2018-09-05T01:58:33.824Z,18.98
2018-09-05T02:01:02.851Z,18.98
2018-09-05T02:03:51.690Z,19.00
2018-09-05T02:06:21.686Z,18.99
2018-09-05T02:08:54.147Z,18.95
2018-09-05T02:11:23.025Z,18.92
2018-09-05T02:14:14.698Z,18.89
2018-09-05T02:16:43.816Z,18.92
2018-09-05T02:19:12.716Z,18.94
2018-09-05T02:24:35.910Z,18.90
2018-09-05T02:27:05.068Z,18.87
2018-09-05T02:29:34.002Z,18.82
2018-09-05T02:32:03.291Z,18.88
2018-09-05T02:34:32.162Z,18.89
2018-09-05T02:37:01.067Z,18.90
2018-09-05T02:39:44.208Z,18.91
2018-09-05T02:42:25.401Z,18.90
2018-09-05T02:44:54.408Z,18.89
2018-09-05T02:47:23.249Z,18.88
2018-09-05T02:50:14.556Z,18.90
2018-09-05T02:52:43.481Z,18.88
2018-09-05T02:55:16.584Z,18.90
2018-09-05T02:57:45.463Z,18.87
2018-09-05T03:00:14.365Z,18.88
2018-09-05T03:02:45.281Z,18.88
2018-09-05T03:05:14.190Z,18.90
2018-09-05T03:07:43.080Z,18.89
2018-09-05T03:10:18.009Z,18.89
2018-09-05T03:12:46.896Z,18.85
2018-09-05T03:15:19.947Z,18.85
2018-09-05T03:17:48.905Z,18.89
2018-09-05T03:20:17.829Z,18.86
2018-09-05T03:22:50.168Z,18.85
2018-09-05T03:28:26.122Z,18.83
2018-09-05T03:30:55.026Z,18.85
2018-09-05T03:33:23.918Z,18.84
2018-09-05T03:35:52.884Z,18.83
2018-09-05T03:38:21.816Z,18.83
2018-09-05T03:40:50.736Z,18.85
2018-09-05T03:43:23.973Z,18.85
2018-09-05T03:45:57.915Z,18.81
2018-09-05T03:48:26.854Z,18.85
2018-09-05T03:51:02.047Z,18.88
2018-09-05T03:53:31.019Z,18.89
2018-09-05T03:56:03.901Z,18.91
2018-09-05T03:58:38.677Z,18.87
2018-09-05T04:01:08.607Z,18.86
2018-09-05T04:03:37.493Z,18.86
2018-09-05T04:06:08.503Z,18.90
2018-09-05T04:08:47.098Z,18.92
2018-09-05T04:11:23.560Z,18.92
2018-09-05T04:13:59.473Z,18.90
2018-09-05T04:16:28.382Z,18.90
2018-09-05T04:19:05.261Z,18.90
2018-09-05T04:21:34.257Z,18.93
2018-09-05T04:24:09.409Z,18.93
2018-09-05T04:26:50.410Z,18.94
2018-09-05T04:29:41.559Z,18.98
2018-09-05T04:32:11.517Z,18.98
2018-09-05T04:34:41.530Z,19.01
2018-09-05T04:37:10.516Z,18.97
2018-09-05T04:39:43.317Z,18.99
2018-09-05T04:45:06.177Z,18.99
2018-09-05T04:47:48.218Z,18.99
2018-09-05T04:50:25.432Z,19.03
2018-09-05T04:52:54.421Z,19.01
2018-09-05T04:55:23.312Z,19.02
2018-09-05T04:57:52.288Z,19.06
2018-09-05T05:00:21.183Z,19.07
2018-09-05T05:02:50.223Z,19.09
2018-09-05T05:05:19.138Z,19.09
2018-09-05T05:07:50.059Z,19.13
2018-09-05T05:10:28.806Z,19.16
2018-09-05T05:12:57.704Z,19.16
2018-09-05T05:15:26.608Z,19.17
2018-09-05T05:17:59.304Z,19.18
2018-09-05T05:20:28.220Z,19.19
2018-09-05T05:23:09.477Z,19.16
2018-09-05T05:25:40.523Z,19.18
2018-09-05T05:28:21.779Z,19.19
2018-09-05T05:30:57.976Z,19.19
2018-09-05T05:33:29.248Z,19.13
2018-09-05T05:36:34.588Z,19.17
2018-09-05T05:39:16.860Z,19.18
2018-09-05T05:41:45.813Z,19.14
2018-09-05T05:44:18.572Z,19.16
2018-09-05T05:47:05.144Z,19.21
2018-09-05T05:49:39.883Z,19.21
2018-09-05T05:52:15.179Z,19.26
2018-09-05T05:57:39.209Z,19.29
2018-09-05T06:00:09.172Z,19.38
2018-09-05T06:02:44.969Z,19.42
2018-09-05T06:05:13.892Z,19.47
2018-09-05T06:07:42.876Z,19.47
2018-09-05T06:10:12.795Z,19.51
2018-09-05T06:12:51.226Z,19.54
2018-09-05T06:15:20.097Z,19.55
2018-09-05T06:17:49.130Z,19.53
2018-09-05T06:20:21.312Z,19.55
2018-09-05T06:23:00.633Z,19.57
2018-09-05T06:25:29.545Z,19.59
2018-09-05T06:28:05.857Z,19.64
2018-09-05T06:30:54.220Z,19.61
2018-09-05T06:33:23.111Z,19.65
2018-09-05T06:35:52.016Z,19.72
2018-09-05T06:38:20.919Z,19.69
2018-09-05T06:40:49.879Z,19.73
2018-09-05T06:43:18.884Z,19.73
2018-09-05T06:45:48.625Z,19.79
2018-09-05T06:48:29.865Z,19.84
2018-09-05T06:51:02.988Z,19.86
2018-09-05T06:53:31.899Z,19.88
2018-09-05T06:56:00.809Z,19.95
2018-09-05T06:58:37.078Z,20.00
2018-09-05T07:01:07.016Z,20.00
2018-09-05T07:03:42.517Z,19.95
2018-09-05T07:06:17.119Z,20.00
2018-09-05T07:08:46.013Z,20.06
2018-09-05T07:11:14.912Z,20.07
2018-09-05T07:13:43.807Z,20.09
2018-09-05T07:16:13.446Z,20.09
2018-09-05T07:18:47.419Z,20.14
2018-09-05T07:21:16.336Z,20.19
2018-09-05T07:23:45.243Z,20.23
2018-09-05T07:26:18.658Z,20.27
2018-09-05T07:28:47.510Z,20.33
2018-09-05T07:31:16.393Z,20.36
2018-09-05T07:33:51.263Z,20.39
2018-09-05T07:36:20.285Z,20.41
2018-09-05T07:38:53.640Z,20.42
2018-09-05T07:41:22.625Z,20.43
2018-09-05T07:43:51.596Z,20.48
2018-09-05T07:46:24.306Z,20.53
2018-09-05T07:48:53.196Z,20.58
2018-09-05T07:51:22.090Z,20.63
2018-09-05T07:54:04.326Z,20.67
2018-09-05T07:56:33.694Z,20.73
2018-09-05T07:59:18.910Z,20.76
2018-09-05T08:01:52.725Z,20.79
2018-09-05T08:04:23.732Z,20.84
2018-09-05T08:06:52.734Z,20.87
2018-09-05T08:12:22.216Z,21.02
2018-09-05T08:14:51.143Z,21.08
2018-09-05T08:17:20.057Z,21.17
2018-09-05T08:19:49.056Z,21.25
2018-09-05T08:22:19.043Z,21.31
2018-09-05T08:24:48.365Z,21.35
2018-09-05T08:27:34.094Z,21.39
2018-09-05T08:30:03.091Z,21.42
2018-09-05T08:32:35.692Z,21.46
2018-09-05T08:35:09.772Z,21.54
2018-09-05T08:37:38.672Z,21.66
2018-09-05T08:40:10.860Z,21.65
2018-09-05T08:42:39.802Z,21.69
2018-09-05T08:45:11.947Z,21.74
2018-09-05T08:47:46.566Z,21.79
2018-09-05T08:50:23.218Z,21.83
2018-09-05T08:53:10.201Z,21.89
2018-09-05T08:55:57.926Z,21.98
2018-09-05T08:58:27.875Z,22.02
2018-09-05T09:01:15.032Z,22.10
2018-09-05T09:03:47.483Z,22.15
2018-09-05T09:06:16.471Z,22.18
2018-09-05T09:08:51.777Z,22.34
2018-09-05T09:11:27.573Z,22.45
2018-09-05T09:13:56.559Z,22.57
2018-09-05T09:16:33.270Z,22.62
2018-09-05T09:19:07.841Z,22.65
2018-09-05T09:21:40.704Z,22.69
2018-09-05T09:24:10.841Z,22.63
2018-09-05T09:26:44.588Z,22.65
2018-09-05T09:29:13.561Z,22.70
2018-09-05T09:31:42.531Z,22.69
2018-09-05T09:34:11.475Z,22.79
2018-09-05T09:36:47.628Z,22.86
2018-09-05T09:39:18.584Z,22.90
2018-09-05T09:41:52.904Z,22.90
2018-09-05T09:44:21.873Z,22.98
2018-09-05T09:46:53.158Z,23.09
2018-09-05T09:49:26.597Z,23.08
2018-09-05T09:52:05.930Z,23.07
2018-09-05T09:54:52.654Z,23.03
2018-09-05T09:57:21.837Z,23.22
2018-09-05T09:59:56.772Z,23.26
2018-09-05T10:02:32.084Z,23.40
2018-09-05T10:05:07.304Z,23.45
2018-09-05T10:07:41.704Z,23.49
2018-09-05T10:10:16.281Z,23.48
2018-09-05T10:12:50.251Z,23.52
2018-09-05T10:15:26.792Z,23.60
2018-09-05T10:18:01.201Z,23.71
2018-09-05T10:20:35.146Z,23.76
2018-09-05T10:23:08.309Z,23.80
2018-09-05T10:25:38.210Z,23.86
2018-09-05T10:28:13.544Z,24.01
2018-09-05T10:30:42.431Z,23.88
2018-09-05T10:33:11.358Z,23.82
2018-09-05T10:35:43.652Z,24.04
2018-09-05T10:38:15.782Z,24.12
2018-09-05T10:40:45.085Z,24.13
2018-09-05T10:43:13.980Z,24.16
2018-09-05T10:45:42.874Z,24.28
2018-09-05T10:48:11.976Z,24.24
2018-09-05T10:50:40.951Z,24.31
2018-09-05T10:53:10.030Z,24.32
2018-09-05T10:55:49.552Z,24.45
2018-09-05T10:58:18.447Z,24.47
2018-09-05T11:00:47.332Z,24.42
2018-09-05T11:03:23.153Z,24.42
2018-09-05T11:05:52.097Z,24.42
2018-09-05T11:08:35.394Z,24.33
2018-09-05T11:11:09.420Z,24.44
2018-09-05T11:13:43.553Z,24.52
2018-09-05T11:16:13.564Z,24.63
2018-09-05T11:18:42.592Z,24.54
2018-09-05T11:21:11.684Z,24.58
2018-09-05T11:23:40.774Z,24.76
2018-09-05T11:26:09.945Z,24.78
2018-09-05T11:28:38.816Z,24.75
2018-09-05T11:31:08.274Z,24.65
2018-09-05T11:33:43.027Z,24.78
2018-09-05T11:36:16.731Z,24.95
2018-09-05T11:38:47.682Z,25.07
2018-09-05T11:41:16.671Z,25.11
2018-09-05T11:43:45.599Z,25.14
2018-09-05T11:46:17.964Z,25.08
2018-09-05T11:48:46.951Z,25.04
2018-09-05T11:51:26.529Z,25.06
2018-09-05T11:54:11.846Z,25.02
2018-09-05T11:56:41.819Z,25.09
2018-09-05T11:59:12.775Z,25.17
2018-09-05T12:01:49.338Z,25.22
2018-09-05T12:04:19.215Z,25.28
2018-09-05T12:06:48.335Z,25.29
2018-09-05T12:09:17.599Z,25.31
2018-09-05T12:11:54.837Z,25.24
2018-09-05T12:14:25.777Z,25.24
2018-09-05T12:16:54.669Z,25.24
2018-09-05T12:19:23.673Z,25.41
2018-09-05T12:21:52.619Z,25.50
2018-09-05T12:24:21.518Z,25.40
2018-09-05T12:27:00.687Z,25.44
2018-09-05T12:29:32.998Z,25.41
2018-09-05T12:32:02.003Z,25.40
2018-09-05T12:34:35.201Z,25.37
2018-09-05T12:37:10.737Z,25.38
2018-09-05T12:39:46.463Z,25.45
2018-09-05T12:42:15.320Z,25.53
2018-09-05T12:44:49.275Z,25.55
2018-09-05T12:47:18.194Z,25.52
2018-09-05T12:49:48.141Z,25.66
2018-09-05T12:52:17.228Z,25.66
2018-09-05T12:54:47.302Z,25.58
2018-09-05T12:57:20.577Z,25.57
2018-09-05T12:59:50.588Z,25.65
2018-09-05T13:02:20.552Z,25.69
2018-09-05T13:04:49.530Z,25.68
2018-09-05T13:07:18.655Z,25.72
2018-09-05T13:09:49.049Z,25.67
2018-09-05T13:12:19.085Z,25.65
2018-09-05T13:14:48.055Z,25.67
2018-09-05T13:17:17.019Z,25.60
2018-09-05T13:19:45.902Z,25.59
2018-09-05T13:22:14.816Z,25.63
2018-09-05T13:24:45.875Z,25.77
2018-09-05T13:27:18.692Z,25.86
2018-09-05T13:29:47.713Z,26.09
2018-09-05T13:32:16.733Z,26.24
2018-09-05T13:34:49.782Z,26.43
2018-09-05T13:37:18.842Z,26.67
2018-09-05T13:39:47.746Z,26.86
2018-09-05T13:42:17.699Z,26.86
2018-09-05T13:44:46.702Z,27.00
2018-09-05T13:47:15.684Z,26.90
2018-09-05T13:49:45.915Z,26.67
2018-09-05T13:52:18.146Z,26.79
2018-09-05T13:54:47.655Z,26.73
2018-09-05T13:57:18.813Z,26.69
2018-09-05T13:59:48.013Z,26.87
2018-09-05T14:02:19.404Z,27.02
2018-09-05T14:04:50.945Z,26.89
2018-09-05T14:07:19.880Z,26.79
2018-09-05T14:09:50.838Z,26.60
2018-09-05T14:12:20.889Z,26.45
2018-09-05T14:14:50.897Z,26.54
2018-09-05T14:17:25.174Z,26.67
2018-09-05T14:19:55.127Z,26.76
2018-09-05T14:22:24.131Z,26.79
2018-09-05T14:24:57.839Z,26.84
2018-09-05T14:27:26.925Z,26.87
2018-09-05T14:29:56.893Z,26.85
2018-09-05T14:32:27.900Z,26.82
2018-09-05T14:34:57.976Z,26.75
2018-09-05T14:37:36.955Z,26.77
2018-09-05T14:40:06.938Z,26.82
2018-09-05T14:42:49.366Z,26.88
2018-09-05T14:45:22.688Z,26.82
2018-09-05T14:47:52.717Z,26.71
2018-09-05T14:50:25.295Z,26.54
2018-09-05T14:52:55.234Z,26.44
2018-09-05T14:55:24.273Z,26.44
2018-09-05T14:57:54.259Z,26.35
2018-09-05T15:00:25.177Z,26.39
2018-09-05T15:02:57.147Z,26.43
2018-09-05T15:05:27.424Z,26.39
2018-09-05T15:08:06.907Z,26.36
2018-09-05T15:10:41.934Z,26.41
2018-09-05T15:13:11.999Z,26.28
2018-09-05T15:15:40.961Z,26.31
2018-09-05T15:18:11.957Z,26.24
2018-09-05T15:20:41.932Z,26.16
2018-09-05T15:23:12.418Z,26.18
2018-09-05T15:25:42.760Z,26.21
2018-09-05T15:28:12.685Z,26.19
2018-09-05T15:30:48.161Z,26.19
2018-09-05T15:33:18.136Z,26.08
2018-09-05T15:35:51.847Z,25.99
2018-09-05T15:38:20.843Z,25.92
2018-09-05T15:40:50.908Z,25.96
2018-09-05T15:43:21.889Z,26.10
2018-09-05T15:45:52.808Z,26.12
2018-09-05T15:48:21.818Z,26.15
2018-09-05T15:50:55.792Z,26.01
2018-09-05T15:53:25.024Z,26.04
2018-09-05T15:55:56.294Z,26.05
2018-09-05T15:58:25.317Z,26.01
2018-09-05T16:01:01.703Z,25.92
2018-09-05T16:03:30.675Z,25.93
2018-09-05T16:05:59.743Z,25.89
2018-09-05T16:08:32.340Z,25.90
2018-09-05T16:11:14.092Z,25.92
2018-09-05T16:13:48.167Z,26.00
2018-09-05T16:16:18.332Z,25.95
2018-09-05T16:18:49.745Z,26.03
2018-09-05T16:21:19.775Z,26.00
2018-09-05T16:23:50.081Z,26.01
2018-09-05T16:26:27.117Z,25.84
2018-09-05T16:28:57.106Z,25.84
2018-09-05T16:31:30.413Z,25.88
2018-09-05T16:34:01.316Z,25.78
2018-09-05T16:36:30.276Z,25.70
2018-09-05T16:39:09.561Z,25.73
2018-09-05T16:41:41.315Z,25.67
2018-09-05T16:44:10.948Z,25.58
2018-09-05T16:46:40.194Z,25.49
2018-09-05T16:49:10.168Z,25.46
2018-09-05T16:51:39.149Z,25.46
2018-09-05T16:54:10.119Z,25.41
2018-09-05T16:56:41.095Z,25.34
2018-09-05T16:59:10.031Z,25.25
2018-09-05T17:01:41.013Z,25.21
2018-09-05T17:04:13.773Z,25.19
2018-09-05T17:06:47.602Z,25.14
2018-09-05T17:09:21.841Z,25.14
2018-09-05T17:11:50.860Z,25.12
2018-09-05T17:14:20.823Z,25.07
2018-09-05T17:16:50.874Z,25.02
2018-09-05T17:19:25.934Z,25.01
2018-09-05T17:21:56.889Z,25.02
2018-09-05T17:24:26.923Z,25.01
2018-09-05T17:26:55.913Z,24.98
2018-09-05T17:29:24.959Z,24.90
2018-09-05T17:31:54.903Z,24.91
2018-09-05T17:34:26.007Z,24.94
2018-09-05T17:36:55.976Z,24.89
2018-09-05T17:39:28.402Z,24.82
2018-09-05T17:42:04.727Z,24.70
2018-09-05T17:44:38.345Z,24.68
2018-09-05T17:47:07.325Z,24.58
2018-09-05T17:49:40.491Z,24.58
2018-09-05T17:52:18.927Z,24.52
2018-09-05T17:54:53.233Z,24.52
2018-09-05T17:57:22.266Z,24.48
2018-09-05T17:59:51.205Z,24.42
2018-09-05T18:02:20.538Z,24.46
2018-09-05T18:04:49.463Z,24.41
2018-09-05T18:07:18.383Z,24.31
2018-09-05T18:09:47.432Z,24.28
2018-09-05T18:12:16.354Z,24.22
2018-09-05T18:14:47.339Z,24.14
2018-09-05T18:17:17.474Z,24.12
2018-09-05T18:19:50.734Z,24.09
2018-09-05T18:22:19.702Z,24.06
2018-09-05T18:24:48.899Z,24.03
2018-09-05T18:27:18.834Z,23.97
2018-09-05T18:29:47.838Z,23.93
2018-09-05T18:32:17.806Z,23.91
2018-09-05T18:34:48.323Z,23.89
2018-09-05T18:37:17.273Z,23.86
2018-09-05T18:39:48.206Z,23.80
2018-09-05T18:42:19.236Z,23.77
2018-09-05T18:44:49.229Z,23.73
2018-09-05T18:47:22.484Z,23.70
2018-09-05T18:49:55.321Z,23.66
2018-09-05T18:52:24.325Z,23.60
2018-09-05T18:55:04.566Z,23.57
2018-09-05T18:57:39.277Z,23.54
2018-09-05T19:00:21.892Z,23.48
2018-09-05T19:03:07.385Z,23.42
2018-09-05T19:05:40.975Z,23.37
2018-09-05T19:08:09.960Z,23.35
2018-09-05T19:10:38.905Z,23.30
2018-09-05T19:13:07.870Z,23.26
2018-09-05T19:15:49.243Z,23.21
2018-09-05T19:18:28.112Z,23.15
2018-09-05T19:21:01.417Z,23.10
2018-09-05T19:23:55.146Z,23.02
2018-09-05T19:26:31.332Z,22.94
2018-09-05T19:29:10.942Z,22.90
2018-09-05T19:31:47.648Z,22.85
2018-09-05T19:34:24.456Z,22.81
2018-09-05T19:36:53.432Z,22.74
2018-09-05T19:39:22.393Z,22.72
2018-09-05T19:41:54.541Z,22.70
2018-09-05T19:44:46.369Z,22.65
2018-09-05T19:47:15.398Z,22.62
2018-09-05T19:49:48.134Z,22.59
2018-09-05T19:52:35.163Z,22.58
2018-09-05T19:57:58.698Z,22.52
2018-09-05T20:00:29.600Z,22.48
2018-09-05T20:02:58.852Z,22.44
2018-09-05T20:05:27.790Z,22.37
2018-09-05T20:08:00.260Z,22.40
2018-09-05T20:10:30.241Z,22.38
2018-09-05T20:13:02.979Z,22.37
2018-09-05T20:15:40.254Z,22.31
2018-09-05T20:21:02.970Z,22.26
2018-09-05T20:23:35.504Z,22.25
2018-09-05T20:26:21.307Z,22.27
2018-09-05T20:29:08.346Z,22.30
2018-09-05T20:31:38.326Z,22.34
2018-09-05T20:34:13.258Z,22.29
2018-09-05T20:36:42.203Z,22.18
2018-09-05T20:42:14.818Z,22.18
2018-09-05T20:44:50.519Z,22.24
2018-09-05T20:47:19.573Z,22.22
2018-09-05T20:49:48.506Z,22.23
2018-09-05T20:52:22.442Z,22.17
2018-09-05T20:54:51.300Z,22.16
2018-09-05T21:00:23.674Z,22.16
2018-09-05T21:02:52.605Z,22.18
2018-09-05T21:05:22.615Z,22.18
2018-09-05T21:07:51.502Z,22.17
2018-09-05T21:10:20.362Z,22.10
2018-09-05T21:12:50.066Z,22.08
2018-09-05T21:15:29.081Z,22.09
2018-09-05T21:18:07.691Z,22.10
2018-09-05T21:20:36.570Z,22.10
2018-09-05T21:23:15.429Z,22.07
2018-09-05T21:25:54.379Z,22.08
2018-09-05T21:28:33.413Z,22.09
2018-09-05T21:31:02.450Z,22.04
2018-09-05T21:33:38.356Z,22.07
2018-09-05T21:36:24.399Z,22.07
2018-09-05T21:41:50.123Z,22.01
2018-09-05T21:44:25.525Z,21.99
2018-09-05T21:46:54.420Z,22.05
2018-09-05T21:49:35.343Z,22.06
2018-09-05T21:52:10.593Z,22.08
2018-09-05T21:57:38.582Z,22.07
2018-09-05T22:00:10.749Z,22.07
2018-09-05T22:02:39.663Z,22.07
2018-09-05T22:05:08.723Z,22.05
2018-09-05T22:10:32.160Z,22.13
2018-09-05T22:13:06.594Z,22.16
2018-09-05T22:15:54.067Z,22.14
2018-09-05T22:18:25.091Z,22.12
2018-09-05T22:21:01.931Z,22.13
2018-09-05T22:26:24.338Z,22.08
2018-09-05T22:28:59.180Z,22.05
2018-09-05T22:31:32.346Z,22.07
2018-09-05T22:34:01.243Z,22.08
2018-09-05T22:36:30.448Z,22.07
2018-09-05T22:39:02.620Z,22.03
2018-09-05T22:41:43.890Z,22.01
2018-09-05T22:45:21.575Z,21.97
2018-09-05T22:48:05.611Z,22.00
2018-09-05T22:51:22.402Z,22.00
2018-09-05T22:57:08.138Z,21.92
2018-09-05T22:59:50.631Z,21.86
2018-09-05T23:04:40.519Z,21.86
2018-09-05T23:07:22.650Z,21.93
2018-09-05T23:10:02.795Z,21.97
2018-09-05T23:15:38.045Z,22.02
2018-09-05T23:18:49.591Z,22.02
2018-09-05T23:21:26.737Z,22.01
2018-09-05T23:24:09.905Z,22.02
2018-09-05T23:26:42.669Z,22.01
2018-09-05T23:29:12.959Z,22.01
2018-09-05T23:31:41.868Z,21.97
2018-09-05T23:34:14.178Z,21.93
2018-09-05T23:36:48.808Z,21.88
2018-09-05T23:39:17.729Z,21.87
2018-09-05T23:41:59.284Z,21.85
2018-09-05T23:44:32.280Z,21.83
2018-09-05T23:47:01.180Z,21.80
2018-09-05T23:49:32.113Z,21.78
2018-09-05T23:54:55.589Z,21.71
2018-09-05T23:57:44.027Z,21.68
